Wahoo — WDH9937 — position and weather

sailwx.info

Track history (hours):
 
Tides and Currents Weather Stations Pressure Air Temp Water Temp Dewpoint Dewpoint Depression Visibility Wind Speed Wind Dir Waves Ship Positions

Wahoo

Owner: Gibbs, William F, Moorpark, CA. More information available from US FCC via Universal Licensing System and Coast Guard Vessel Documentation Center.

Last reported at 2018-May-20 04:45 UTC. Time now 2018-Jun-24 11:04 UTC.
Position N 34°15' W 119°16'.
Warning: this ship's position is 35 days out of date.

Length 14 m.

Type: Sailing vessel. MMSI: 367673090.

Date/timePositionNaut miles runAvg speedWind from/ knotsBaromVisibWave heightAir tempDewpointWater temp
2018-May-20 04:45N 34°15' W 119°16'1 4.0
2018-May-20 04:30N 34°14' W 119°17'5 7.2
2018-May-20 03:52N 34°11' W 119°20'1 1.7
2018-May-20 03:27N 34°10' W 119°20'2 3.5
2018-May-20 03:00N 34°09' W 119°22'4 7.2
2018-May-20 02:30N 34°07' W 119°25'710.8
2018-May-20 01:54N 34°02' W 119°30'19 6.2
2018-May-19 22:48N 33°56' W 119°53'714.1
2018-May-19 22:20N 34°03' W 119°56'5 7.3
2018-May-19 21:36N 34°07' W 119°52'2 9.4
2018-May-19 21:23N 34°09' W 119°51'4 8.4
2018-May-19 20:56N 34°12' W 119°49'4 8.3
2018-May-19 20:29N 34°15' W 119°47'4 5.7
2018-May-19 19:45N 34°19' W 119°45'2 4.5
2018-May-19 19:25N 34°21' W 119°45'2 3.5
2018-May-19 18:55N 34°23' W 119°45'3 5.3
2018-May-19 18:25N 34°23' W 119°42'1 2.5
2018-May-19 17:59N 34°24' W 119°41'1 0.0
2018-May-18 20:07N 34°24' W 119°41'0 2.2
2018-May-18 20:00N 34°24' W 119°41'4 7.4
2018-May-18 19:23N 34°22' W 119°36'4 8.0
2018-May-18 18:50N 34°20' W 119°31'3 7.6
2018-May-18 18:29N 34°19' W 119°28'  
Track history (hours):
 
Tides and Currents Weather Stations Pressure Air Temp Water Temp Dewpoint Dewpoint Depression Visibility Wind Speed Wind Dir Waves Ship Positions

Wahoo

Owner: Gibbs, William F, Moorpark, CA. More information available from US FCC via Universal Licensing System and Coast Guard Vessel Documentation Center.

Last reported at 2018-May-20 04:45 UTC. Time now 2018-Jun-24 11:04 UTC.
Position N 34°15' W 119°16'.
Warning: this ship's position is 35 days out of date.

Length 14 m.

Type: Sailing vessel. MMSI: 367673090.

Date/timePositionNaut miles runAvg speedWind from/ knotsBaromVisibWave heightAir tempDewpointWater temp
2018-May-20 04:45N 34°15' W 119°16'1 4.0
2018-May-20 04:30N 34°14' W 119°17'5 7.2
2018-May-20 03:52N 34°11' W 119°20'1 1.7
2018-May-20 03:27N 34°10' W 119°20'2 3.5
2018-May-20 03:00N 34°09' W 119°22'4 7.2
2018-May-20 02:30N 34°07' W 119°25'710.8
2018-May-20 01:54N 34°02' W 119°30'19 6.2
2018-May-19 22:48N 33°56' W 119°53'714.1
2018-May-19 22:20N 34°03' W 119°56'5 7.3
2018-May-19 21:36N 34°07' W 119°52'2 9.4
2018-May-19 21:23N 34°09' W 119°51'4 8.4
2018-May-19 20:56N 34°12' W 119°49'4 8.3
2018-May-19 20:29N 34°15' W 119°47'4 5.7
2018-May-19 19:45N 34°19' W 119°45'2 4.5
2018-May-19 19:25N 34°21' W 119°45'2 3.5
2018-May-19 18:55N 34°23' W 119°45'3 5.3
2018-May-19 18:25N 34°23' W 119°42'1 2.5
2018-May-19 17:59N 34°24' W 119°41'1 0.0
2018-May-18 20:07N 34°24' W 119°41'0 2.2
2018-May-18 20:00N 34°24' W 119°41'4 7.4
2018-May-18 19:23N 34°22' W 119°36'4 8.0
2018-May-18 18:50N 34°20' W 119°31'3 7.6
2018-May-18 18:29N 34°19' W 119°28'  

Dump ship's entire track history